Time;durP1;ratioP1;P1;durP2;ratioP2;P2;SDS_P1;SDS_P2;PMS_P1;PMS_P2;Temp;Humidity;BMP_temperature;BMP_pressure;BME280_temperature;BME280_humidity;BME280_pressure;Samples;Min_cycle;Max_cycle;Signal;HPM_P1;HPM_P2
2023/07/12 00:01:37;;;;;;;4.05;1.88;;;18.50;99.90;;;;;;5046553;28;20484;-72
2023/07/12 00:04:03;;;;;;;5.65;2.30;;;18.60;99.90;;;;;;5047031;28;20041;-71
2023/07/12 00:06:36;;;;;;;6.18;2.45;;;18.60;99.90;;;;;;5065593;28;20036;-72
2023/07/12 00:09:02;;;;;;;5.43;2.08;;;18.50;99.90;;;;;;5038003;28;20095;-72
2023/07/12 00:11:28;;;;;;;6.03;2.03;;;18.50;99.90;;;;;;5045060;28;20418;-72
2023/07/12 00:13:54;;;;;;;4.70;2.30;;;18.50;99.90;;;;;;5038054;28;20044;-71
2023/07/12 00:16:26;;;;;;;6.40;1.95;;;18.80;99.90;;;;;;5059377;28;20386;-72
2023/07/12 00:18:53;;;;;;;4.50;1.98;;;18.70;99.90;;;;;;5052566;28;20033;-72
2023/07/12 00:21:22;;;;;;;6.10;2.00;;;18.60;99.90;;;;;;5047775;28;20060;-72
2023/07/12 00:23:52;;;;;;;3.55;2.40;;;18.60;99.90;;;;;;5042321;28;20502;-72
2023/07/12 00:26:27;;;;;;;2.90;1.85;;;18.60;99.90;;;;;;5044726;28;20088;-71
2023/07/12 00:28:54;;;;;;;4.05;1.80;;;18.60;99.90;;;;;;5045055;28;20478;-72
2023/07/12 00:31:20;;;;;;;4.28;2.22;;;18.60;99.90;;;;;;5043970;28;20123;-71
2023/07/12 00:33:45;;;;;;;5.80;2.70;;;18.70;99.90;;;;;;5062124;28;20039;-72
2023/07/12 00:36:26;;;;;;;5.40;2.25;;;18.80;99.90;;;;;;5039192;28;20109;-72
2023/07/12 00:38:52;;;;;;;5.90;2.08;;;18.50;99.90;;;;;;5061992;28;20044;-71
2023/07/12 00:41:45;;;;;;;3.58;1.88;;;18.40;99.90;;;;;;5064748;28;20127;-72
2023/07/12 00:44:16;;;;;;;3.80;2.08;;;18.50;99.90;;;;;;5046055;28;20055;-72
2023/07/12 00:46:46;;;;;;;4.32;1.90;;;18.50;99.90;;;;;;5060009;28;20041;-72
2023/07/12 00:49:12;;;;;;;9.65;2.72;;;18.50;99.90;;;;;;5062928;28;20490;-72
2023/07/12 00:51:59;;;;;;;4.50;1.75;;;18.40;99.90;;;;;;5064617;28;20063;-71
2023/07/12 00:54:45;;;;;;;4.72;2.33;;;18.30;99.90;;;;;;5062773;28;20072;-71
2023/07/12 00:57:11;;;;;;;5.30;2.03;;;;;;;;;;5060394;28;20688;-71
2023/07/12 00:59:37;;;;;;;5.75;2.13;;;;;;;;;;5060753;28;20082;-72
2023/07/12 01:02:03;;;;;;;4.60;2.22;;;18.30;99.90;;;;;;5059652;28;20404;-71
2023/07/12 01:04:39;;;;;;;6.30;2.35;;;18.30;99.90;;;;;;5029701;28;20741;-71
2023/07/12 01:07:04;;;;;;;9.35;2.90;;;18.40;99.90;;;;;;5061772;28;20483;-71
2023/07/12 01:09:32;;;;;;;5.38;2.15;;;18.40;99.90;;;;;;5041595;28;20040;-71
2023/07/12 01:11:59;;;;;;;5.57;2.30;;;18.40;99.90;;;;;;5062505;28;20056;-72
2023/07/12 01:14:25;;;;;;;6.18;2.50;;;18.30;99.90;;;;;;5062840;28;20032;-71
2023/07/12 01:16:56;;;;;;;7.50;2.78;;;18.30;99.90;;;;;;5046760;28;20037;-72
2023/07/12 01:19:22;;;;;;;5.95;2.80;;;18.30;99.90;;;;;;5046604;28;20055;-72
2023/07/12 01:21:51;;;;;;;5.57;2.50;;;18.00;99.90;;;;;;5063437;28;20128;-71
2023/07/12 01:24:18;;;;;;;6.68;2.25;;;18.30;99.90;;;;;;5060644;28;20499;-72
2023/07/12 01:26:46;;;;;;;6.13;2.25;;;18.10;99.90;;;;;;5064883;28;20044;-71
2023/07/12 01:29:12;;;;;;;5.57;2.55;;;18.10;99.90;;;;;;5041010;28;20056;-72
2023/07/12 01:31:39;;;;;;;7.72;2.83;;;18.00;99.90;;;;;;5059383;28;20490;-71
2023/07/12 01:34:06;;;;;;;5.32;2.50;;;18.30;99.90;;;;;;5062408;28;20041;-71
2023/07/12 01:36:32;;;;;;;5.55;2.38;;;18.00;99.90;;;;;;5065911;28;20076;-72
2023/07/12 01:39:00;;;;;;;7.55;2.90;;;18.00;99.90;;;;;;5046302;28;20044;-71
2023/07/12 01:41:25;;;;;;;4.60;2.33;;;17.90;99.90;;;;;;5068064;28;20076;-71
2023/07/12 01:43:52;;;;;;;5.13;2.50;;;18.00;99.90;;;;;;5068384;28;20120;-71
2023/07/12 01:46:18;;;;;;;6.88;2.60;;;;;;;;;;5034411;28;20052;-72
2023/07/12 01:48:44;;;;;;;6.30;2.70;;;17.70;99.90;;;;;;5056363;28;20043;-71
2023/07/12 01:51:10;;;;;;;7.43;2.78;;;17.70;99.90;;;;;;5041012;28;20048;-72
2023/07/12 01:53:35;;;;;;;5.20;2.60;;;17.80;99.90;;;;;;5031362;28;20067;-71
2023/07/12 01:56:03;;;;;;;10.00;2.80;;;17.90;99.90;;;;;;5063956;28;20040;-71
2023/07/12 01:58:28;;;;;;;8.63;2.65;;;18.00;99.90;;;;;;5062178;28;20410;-71
2023/07/12 02:00:55;;;;;;;6.43;2.85;;;17.80;99.90;;;;;;5047201;28;20047;-71
2023/07/12 02:03:20;;;;;;;6.72;2.90;;;17.70;99.90;;;;;;5066829;28;20480;-71
2023/07/12 02:05:46;;;;;;;9.60;3.33;;;17.70;99.90;;;;;;5048612;28;20044;-71
2023/07/12 02:08:12;;;;;;;8.65;3.00;;;17.80;99.90;;;;;;5068513;28;20628;-71
2023/07/12 02:10:38;;;;;;;7.95;3.05;;;;;;;;;;5042713;28;20041;-71
2023/07/12 02:13:04;;;;;;;7.57;3.20;;;17.80;99.90;;;;;;5049837;28;20051;-71
2023/07/12 02:15:30;;;;;;;9.70;3.55;;;17.60;99.90;;;;;;5056936;28;20764;-71
2023/07/12 02:17:56;;;;;;;6.50;3.28;;;;;;;;;;5040853;28;20045;-71
2023/07/12 02:20:23;;;;;;;7.90;3.58;;;17.70;99.90;;;;;;5046516;28;20404;-71
2023/07/12 02:22:49;;;;;;;9.30;3.40;;;17.60;99.90;;;;;;5062342;28;20044;-71
2023/07/12 02:25:16;;;;;;;7.05;3.88;;;17.60;99.90;;;;;;5064041;28;20047;-71
2023/07/12 02:27:44;;;;;;;11.65;3.42;;;17.80;99.90;;;;;;5060371;28;20394;-71
2023/07/12 02:30:13;;;;;;;6.72;3.55;;;17.90;99.90;;;;;;5066739;28;20043;-72
2023/07/12 02:32:39;;;;;;;13.93;3.38;;;17.90;99.90;;;;;;5039999;28;20499;-72
2023/07/12 02:35:06;;;;;;;10.43;3.65;;;17.80;99.90;;;;;;5060426;28;20036;-71
2023/07/12 02:37:32;;;;;;;7.85;3.58;;;;;;;;;;5045169;28;20045;-71
2023/07/12 02:39:57;;;;;;;10.00;4.15;;;17.90;99.90;;;;;;5065191;28;20555;-72
2023/07/12 02:42:23;;;;;;;8.60;3.45;;;17.80;99.90;;;;;;5065183;28;20040;-71
2023/07/12 02:44:49;;;;;;;8.07;3.20;;;17.90;99.90;;;;;;5064398;28;20059;-73
2023/07/12 02:47:15;;;;;;;13.38;3.70;;;17.60;99.90;;;;;;5066416;28;20085;-72
2023/07/12 02:49:41;;;;;;;10.50;2.88;;;;;;;;;;5061776;28;20040;-72
2023/07/12 02:52:08;;;;;;;12.00;2.83;;;17.50;99.90;;;;;;5044292;28;20059;-71
2023/07/12 02:54:34;;;;;;;14.40;3.90;;;;;;;;;;5063345;28;20040;-72
2023/07/12 02:57:01;;;;;;;10.95;3.63;;;17.50;99.90;;;;;;5045099;28;20115;-72
2023/07/12 02:59:27;;;;;;;10.68;3.95;;;17.50;99.90;;;;;;5060957;28;20049;-71
2023/07/12 03:01:53;;;;;;;9.70;3.53;;;17.50;99.90;;;;;;5041971;28;20052;-71
2023/07/12 03:04:20;;;;;;;8.95;3.75;;;17.20;99.90;;;;;;5065096;28;20394;-72
2023/07/12 03:06:46;;;;;;;10.00;3.42;;;17.50;99.90;;;;;;5046263;28;20088;-72
2023/07/12 03:09:12;;;;;;;12.48;3.67;;;17.30;99.90;;;;;;5062765;28;20463;-71
2023/07/12 03:11:37;;;;;;;9.65;3.42;;;17.50;99.90;;;;;;5043152;28;20261;-72
2023/07/12 03:14:04;;;;;;;10.82;3.90;;;17.30;99.90;;;;;;5047544;28;20037;-71
2023/07/12 03:16:30;;;;;;;15.32;5.18;;;;;;;;;;5063166;28;20047;-72
2023/07/12 03:18:56;;;;;;;11.45;4.15;;;17.40;99.90;;;;;;5062365;28;20044;-72
2023/07/12 03:21:22;;;;;;;13.52;4.30;;;;;;;;;;5047246;28;20040;-71
2023/07/12 03:23:48;;;;;;;10.60;3.88;;;;;;;;;;5047384;28;20509;-71
2023/07/12 03:26:14;;;;;;;23.33;5.07;;;17.40;99.90;;;;;;5044010;28;20045;-71
2023/07/12 03:28:40;;;;;;;10.07;3.88;;;;;;;;;;5045196;28;20480;-72
2023/07/12 03:31:15;;;;;;;14.07;4.45;;;17.30;99.90;;;;;;5041502;28;20060;-71
2023/07/12 03:33:43;;;;;;;13.75;4.35;;;17.40;99.90;;;;;;5065778;28;20103;-71
2023/07/12 03:36:09;;;;;;;12.18;4.47;;;;;;;;;;5064600;28;20094;-71
2023/07/12 03:38:35;;;;;;;15.48;4.78;;;;;;;;;;5040265;28;20044;-73
2023/07/12 03:41:06;;;;;;;12.93;4.30;;;17.20;99.90;;;;;;5041351;28;20076;-72
2023/07/12 03:43:33;;;;;;;16.45;4.55;;;17.40;99.90;;;;;;5065809;28;20079;-71
2023/07/12 03:45:58;;;;;;;14.43;4.22;;;;;;;;;;5065185;28;20052;-71
2023/07/12 03:48:24;;;;;;;12.25;4.38;;;17.30;99.90;;;;;;5031166;28;20036;-71
2023/07/12 03:50:52;;;;;;;13.55;4.25;;;17.10;99.90;;;;;;5065571;28;20113;-72
2023/07/12 03:53:19;;;;;;;14.70;3.50;;;;;;;;;;5058924;28;20070;-71
2023/07/12 03:55:46;;;;;;;8.65;3.58;;;17.20;99.90;;;;;;5059133;28;20044;-71
2023/07/12 03:58:18;;;;;;;11.00;3.63;;;17.20;99.90;;;;;;5060694;28;20044;-71
2023/07/12 04:00:46;;;;;;;10.77;4.47;;;17.20;99.90;;;;;;5062838;28;20058;-71
2023/07/12 04:03:12;;;;;;;11.15;3.97;;;17.40;99.90;;;;;;5040532;28;20033;-71
2023/07/12 04:05:39;;;;;;;10.88;3.78;;;17.30;99.90;;;;;;5045631;28;20044;-71
2023/07/12 04:08:05;;;;;;;15.00;4.07;;;;;;;;;;5042326;28;20041;-72
2023/07/12 04:10:31;;;;;;;11.38;4.15;;;17.40;99.90;;;;;;5059846;28;20059;-71
2023/07/12 04:12:57;;;;;;;10.55;3.88;;;;;;;;;;5062085;28;20422;-71
2023/07/12 04:15:23;;;;;;;8.82;3.25;;;;;;;;;;5043821;28;20044;-71
2023/07/12 04:17:49;;;;;;;13.80;4.57;;;17.40;99.90;;;;;;5057024;28;20091;-71
2023/07/12 04:20:15;;;;;;;13.60;3.75;;;17.50;99.90;;;;;;5041559;28;20047;-72
2023/07/12 04:22:41;;;;;;;13.43;3.88;;;;;;;;;;5026931;28;20044;-72
2023/07/12 04:25:10;;;;;;;11.70;4.47;;;17.50;99.90;;;;;;5040679;28;20044;-71
2023/07/12 04:27:37;;;;;;;8.15;3.80;;;17.40;99.90;;;;;;5058473;28;20128;-71
2023/07/12 04:30:09;;;;;;;11.63;3.65;;;17.30;99.90;;;;;;5060339;28;20029;-72
2023/07/12 04:32:34;;;;;;;8.48;3.42;;;17.40;99.90;;;;;;5056816;28;20106;-71
2023/07/12 04:35:00;;;;;;;9.63;4.65;;;17.40;99.90;;;;;;5059328;28;20055;-71
2023/07/12 04:37:26;;;;;;;12.73;5.82;;;17.40;99.90;;;;;;5056627;28;20043;-71
2023/07/12 04:39:52;;;;;;;13.93;4.35;;;17.40;99.90;;;;;;5040708;28;20037;-71
2023/07/12 04:42:18;;;;;;;10.30;3.75;;;17.20;99.90;;;;;;5042414;28;20051;-71
2023/07/12 04:44:44;;;;;;;15.43;5.03;;;;;;;;;;5054191;28;20366;-71
2023/07/12 04:47:10;;;;;;;11.38;4.25;;;17.30;99.90;;;;;;5045949;28;20106;-71
2023/07/12 04:49:36;;;;;;;10.93;4.40;;;;;;;;;;5058042;28;20036;-71
2023/07/12 04:52:04;;;;;;;12.30;4.30;;;;;;;;;;5061483;28;20127;-71
2023/07/12 04:54:30;;;;;;;12.07;4.18;;;;;;;;;;5061735;28;20510;-71
2023/07/12 04:56:56;;;;;;;11.88;4.03;;;;;;;;;;5061468;28;20773;-71
2023/07/12 04:59:22;;;;;;;11.07;4.43;;;;;;;;;;5061502;28;20037;-71
2023/07/12 05:01:48;;;;;;;10.35;4.57;;;17.40;99.90;;;;;;5041438;28;20079;-71
2023/07/12 05:04:15;;;;;;;12.52;4.45;;;;;;;;;;5063901;28;20044;-71
2023/07/12 05:06:40;;;;;;;13.48;4.53;;;17.40;99.90;;;;;;5046266;28;20102;-71
2023/07/12 05:09:06;;;;;;;17.83;4.30;;;;;;;;;;5044160;28;20048;-71
2023/07/12 05:11:32;;;;;;;18.50;4.50;;;;;;;;;;5046125;28;20044;-71
2023/07/12 05:13:58;;;;;;;19.70;4.70;;;;;;;;;;5055235;28;20064;-71
2023/07/12 05:16:24;;;;;;;16.92;4.63;;;17.40;99.90;;;;;;5041067;28;20843;-71
2023/07/12 05:18:50;;;;;;;16.77;4.88;;;;;;;;;;5033121;28;20040;-71
2023/07/12 05:21:17;;;;;;;12.98;4.40;;;17.40;99.90;;;;;;5031243;28;20048;-72
2023/07/12 05:23:43;;;;;;;20.08;4.65;;;;;;;;;;5044226;28;20044;-71
2023/07/12 05:26:09;;;;;;;16.50;5.57;;;;;;;;;;5050564;28;20048;-71
2023/07/12 05:28:35;;;;;;;14.60;4.18;;;17.40;99.90;;;;;;5066440;28;20044;-71
2023/07/12 05:31:11;;;;;;;17.10;5.43;;;17.50;99.90;;;;;;5067624;28;20082;-71
2023/07/12 05:33:40;;;;;;;14.05;4.60;;;17.60;99.90;;;;;;5067332;28;20067;-71
2023/07/12 05:36:06;;;;;;;18.00;5.80;;;17.40;99.90;;;;;;5047270;28;20052;-71
2023/07/12 05:38:32;;;;;;;13.70;4.68;;;;;;;;;;5060353;28;20040;-72
2023/07/12 05:40:59;;;;;;;14.38;5.30;;;17.40;99.90;;;;;;5045071;28;20406;-71
2023/07/12 05:43:25;;;;;;;13.93;5.18;;;;;;;;;;5050328;28;20693;-71
2023/07/12 05:45:52;;;;;;;15.90;4.90;;;17.60;99.90;;;;;;5049036;28;20127;-71
2023/07/12 05:48:18;;;;;;;16.38;5.57;;;17.70;99.90;;;;;;5046642;28;20055;-72
2023/07/12 05:50:43;;;;;;;13.52;5.07;;;17.90;99.90;;;;;;5065324;28;20043;-72
2023/07/12 05:53:09;;;;;;;10.32;4.57;;;18.30;99.90;;;;;;5063265;28;20053;-71
2023/07/12 05:55:35;;;;;;;14.00;4.80;;;;;;;;;;5060894;28;20113;-71
2023/07/12 05:58:01;;;;;;;14.45;5.90;;;18.20;99.90;;;;;;5059885;28;20395;-71
2023/07/12 06:00:27;;;;;;;14.43;5.70;;;;;;;;;;5064128;28;20043;-71
2023/07/12 06:02:53;;;;;;;14.18;4.75;;;;;;;;;;5048848;28;20055;-72
2023/07/12 06:05:19;;;;;;;20.05;6.03;;;;;;;;;;5021556;28;20406;-71
2023/07/12 06:07:46;;;;;;;19.88;7.63;;;;;;;;;;5060383;28;20135;-71
2023/07/12 06:10:11;;;;;;;16.10;5.65;;;18.00;99.90;;;;;;5064205;28;20119;-72
2023/07/12 06:12:38;;;;;;;13.05;5.25;;;17.60;99.90;;;;;;5059921;28;20557;-71
2023/07/12 06:15:04;;;;;;;8.57;4.90;;;17.80;99.90;;;;;;5062392;28;20585;-72
2023/07/12 06:17:31;;;;;;;11.30;5.50;;;;;;;;;;5048425;28;20054;-71
2023/07/12 06:19:56;;;;;;;16.42;5.82;;;17.50;99.90;;;;;;5061018;28;20032;-71
2023/07/12 06:22:22;;;;;;;14.63;5.53;;;;;;;;;;5060868;28;20036;-72
2023/07/12 06:24:48;;;;;;;10.10;4.85;;;17.60;99.90;;;;;;5044676;28;20083;-72
2023/07/12 06:27:14;;;;;;;12.25;5.68;;;;;;;;;;5044004;28;20091;-72
2023/07/12 06:29:41;;;;;;;17.90;5.60;;;17.60;99.90;;;;;;5043440;28;20044;-71
2023/07/12 06:32:11;;;;;;;13.27;4.25;;;17.70;99.90;;;;;;5063239;28;20044;-71
2023/07/12 06:34:37;;;;;;;18.17;6.07;;;17.70;99.90;;;;;;5044847;28;20127;-71
2023/07/12 06:37:03;;;;;;;7.90;3.90;;;18.10;99.90;;;;;;5046905;28;20131;-71
2023/07/12 06:39:28;;;;;;;14.52;4.68;;;18.90;99.90;;;;;;5055924;28;20049;-71
2023/07/12 06:41:54;;;;;;;13.77;5.15;;;;;;;;;;5052837;28;20124;-71
2023/07/12 06:44:20;;;;;;;11.80;3.83;;;;;;;;;;5060111;28;20041;-72
2023/07/12 06:46:46;;;;;;;15.02;4.25;;;19.50;99.90;;;;;;5061306;28;20045;-72
2023/07/12 06:49:15;;;;;;;9.43;4.47;;;;;;;;;;5044336;28;20048;-71
2023/07/12 06:51:46;;;;;;;13.57;5.32;;;19.10;99.90;;;;;;5058148;28;20083;-71
2023/07/12 06:54:12;;;;;;;15.65;5.35;;;;;;;;;;5065684;28;20051;-72
2023/07/12 06:56:38;;;;;;;14.88;5.07;;;18.90;99.90;;;;;;5037819;28;20061;-71
2023/07/12 06:59:04;;;;;;;12.95;4.90;;;;;;;;;;5039287;28;20165;-70
2023/07/12 07:01:30;;;;;;;13.85;5.10;;;;;;;;;;5019953;28;20037;-70
2023/07/12 07:03:55;;;;;;;15.38;5.63;;;18.40;99.90;;;;;;5058785;28;20150;-71
2023/07/12 07:06:21;;;;;;;20.50;5.32;;;18.50;99.90;;;;;;5061449;28;20037;-72
2023/07/12 07:08:47;;;;;;;17.67;4.72;;;18.60;99.90;;;;;;5042496;28;20053;-71
2023/07/12 07:11:13;;;;;;;16.80;4.85;;;;;;;;;;5044087;28;20115;-70
2023/07/12 07:13:40;;;;;;;10.43;5.03;;;18.80;99.90;;;;;;5037770;28;20045;-71
2023/07/12 07:16:06;;;;;;;14.85;3.95;;;;;;;;;;5034137;28;20037;-72
2023/07/12 07:18:31;;;;;;;12.68;4.10;;;;;;;;;;5051966;28;20055;-71
2023/07/12 07:20:59;;;;;;;12.95;4.60;;;18.90;99.90;;;;;;5057776;28;20041;-71
2023/07/12 07:23:25;;;;;;;14.90;5.45;;;19.00;99.90;;;;;;5055893;28;20051;-70
2023/07/12 07:25:51;;;;;;;17.10;5.20;;;19.20;99.90;;;;;;5057957;28;20528;-71
2023/07/12 07:28:28;;;;;;;19.45;4.78;;;19.20;99.90;;;;;;5059087;28;20040;-70
2023/07/12 07:30:55;;;;;;;14.25;4.75;;;19.30;99.90;;;;;;5039364;28;20044;-71
2023/07/12 07:33:21;;;;;;;9.13;3.92;;;19.10;99.90;;;;;;5053073;28;20056;-70
2023/07/12 07:35:47;;;;;;;15.65;4.38;;;;;;;;;;5039311;28;20037;-70
2023/07/12 07:38:13;;;;;;;12.10;4.60;;;18.80;99.90;;;;;;5060779;28;20083;-70
2023/07/12 07:40:42;;;;;;;21.23;4.50;;;18.70;99.90;;;;;;5041969;28;20066;-70
2023/07/12 07:43:10;;;;;;;10.88;4.43;;;18.70;99.90;;;;;;5052192;28;20040;-70
2023/07/12 07:45:35;;;;;;;13.45;5.28;;;18.50;99.90;;;;;;5044162;28;20044;-70
2023/07/12 07:48:01;;;;;;;11.70;4.57;;;;;;;;;;5056935;28;20044;-70
2023/07/12 07:50:27;;;;;;;13.52;5.10;;;18.50;99.90;;;;;;5047879;28;20094;-70
2023/07/12 07:52:53;;;;;;;14.70;5.78;;;;;;;;;;5036611;28;20498;-70
2023/07/12 07:55:20;;;;;;;17.15;5.32;;;18.90;99.90;;;;;;5043354;28;20049;-70
2023/07/12 07:57:46;;;;;;;14.82;5.13;;;;;;;;;;5038209;28;20354;-71
2023/07/12 08:00:13;;;;;;;16.70;5.97;;;18.90;99.90;;;;;;5059510;28;20033;-70
2023/07/12 08:02:43;;;;;;;15.15;6.18;;;19.00;99.90;;;;;;5057453;28;20257;-72
2023/07/12 08:05:10;;;;;;;13.95;5.53;;;19.00;99.90;;;;;;5036513;28;20052;-71
2023/07/12 08:07:46;;;;;;;14.18;5.90;;;19.10;99.90;;;;;;5058172;28;20052;-74
2023/07/12 08:10:15;;;;;;;22.17;6.70;;;18.90;99.90;;;;;;5023756;28;20098;-75
2023/07/12 08:12:40;;;;;;;17.45;5.13;;;18.80;99.90;;;;;;5051599;28;20052;-73
2023/07/12 08:15:06;;;;;;;13.23;5.35;;;18.50;99.90;;;;;;5050748;28;20037;-73
2023/07/12 08:17:33;;;;;;;12.48;5.35;;;;;;;;;;5046540;28;20049;-71
2023/07/12 08:19:58;;;;;;;19.05;6.38;;;18.70;99.90;;;;;;5056349;28;20764;-70
2023/07/12 08:22:25;;;;;;;16.50;6.82;;;18.60;99.90;;;;;;5059071;28;20033;-70
2023/07/12 08:24:51;;;;;;;20.60;7.10;;;18.80;99.90;;;;;;5033547;28;21162;-71
2023/07/12 08:27:17;;;;;;;15.20;6.25;;;;;;;;;;5051142;28;20449;-71
2023/07/12 08:29:43;;;;;;;15.73;6.28;;;18.80;99.90;;;;;;5059709;28;20067;-71
2023/07/12 08:32:10;;;;;;;10.95;7.35;;;18.90;99.90;;;;;;5014976;28;20148;-71
2023/07/12 08:34:36;;;;;;;15.40;6.43;;;18.90;99.90;;;;;;5043136;28;20049;-70
2023/07/12 08:37:02;;;;;;;19.50;7.03;;;;;;;;;;5038599;28;20755;-72
2023/07/12 08:39:28;;;;;;;14.57;8.02;;;18.80;99.90;;;;;;5038118;28;20040;-75
2023/07/12 08:41:54;;;;;;;18.98;7.82;;;18.80;99.90;;;;;;5044139;28;20485;-78
2023/07/12 08:44:22;;;;;;;27.73;8.52;;;18.60;99.90;;;;;;5052592;28;20470;-72
2023/07/12 08:46:58;;;;;;;17.00;5.10;;;18.50;99.90;;;;;;5064175;28;20126;-71
2023/07/12 08:49:25;;;;;;;14.18;5.68;;;18.70;99.90;;;;;;5036626;28;20515;-74
2023/07/12 08:52:01;;;;;;;15.77;5.18;;;18.20;99.90;;;;;;5039729;28;20076;-76
2023/07/12 08:54:35;;;;;;;14.63;5.97;;;17.40;99.90;;;;;;5042408;28;20053;-73
2023/07/12 08:57:17;;;;;;;12.98;5.13;;;18.20;99.90;;;;;;5039837;28;20069;-72
2023/07/12 09:00:07;;;;;;;9.63;4.20;;;18.00;99.90;;;;;;5035202;28;20145;-71
2023/07/12 09:02:34;;;;;;;7.95;3.88;;;18.00;99.90;;;;;;5031084;28;20033;-72
2023/07/12 09:05:11;;;;;;;11.48;4.70;;;19.60;99.90;;;;;;5020612;28;20041;-73
2023/07/12 09:07:36;;;;;;;10.93;4.13;;;18.30;99.90;;;;;;5036113;28;20041;-74
2023/07/12 09:10:05;;;;;;;15.25;5.30;;;18.40;99.90;;;;;;5040042;28;20036;-73
2023/07/12 09:12:35;;;;;;;13.43;6.53;;;18.50;99.90;;;;;;5033838;28;20080;-74
2023/07/12 09:15:05;;;;;;;17.23;6.43;;;18.60;99.90;;;;;;5031112;28;20033;-74
2023/07/12 09:17:42;;;;;;;12.95;5.78;;;18.50;99.90;;;;;;5039005;28;20568;-73
2023/07/12 09:20:28;;;;;;;11.73;5.60;;;18.70;99.90;;;;;;5027004;28;20045;-73
2023/07/12 09:22:55;;;;;;;14.70;5.15;;;18.90;99.90;;;;;;5024653;28;20438;-72
2023/07/12 09:25:24;;;;;;;10.75;3.92;;;19.10;99.90;;;;;;5032801;28;20069;-73
2023/07/12 09:27:50;;;;;;;11.82;4.03;;;19.10;99.90;;;;;;5036371;28;20088;-72
2023/07/12 09:30:26;;;;;;;7.10;4.25;;;19.20;99.90;;;;;;5021734;28;20124;-73
2023/07/12 09:32:57;;;;;;;10.73;3.75;;;19.30;99.90;;;;;;5020325;28;20530;-73
2023/07/12 09:35:39;;;;;;;11.48;3.40;;;19.50;99.90;;;;;;5034973;28;20037;-72
2023/07/12 09:38:14;;;;;;;16.90;4.15;;;19.70;99.90;;;;;;5031680;28;20044;-72
2023/07/12 09:40:42;;;;;;;12.23;3.58;;;19.70;99.90;;;;;;5035418;28;20037;-73
2023/07/12 09:43:14;;;;;;;13.40;3.70;;;19.80;99.90;;;;;;5038484;28;20041;-73
2023/07/12 09:45:42;;;;;;;12.20;3.45;;;19.90;99.90;;;;;;5022303;28;20053;-73
2023/07/12 09:48:30;;;;;;;10.98;3.05;;;19.80;99.90;;;;;;5031972;28;20041;-72
2023/07/12 09:51:06;;;;;;;7.70;3.47;;;19.80;99.90;;;;;;5035914;28;20041;-73
2023/07/12 09:53:39;;;;;;;12.50;3.88;;;19.90;99.90;;;;;;5020688;28;20511;-73
2023/07/12 09:56:17;;;;;;;9.85;2.97;;;19.90;99.90;;;;;;5032696;28;20044;-73
2023/07/12 09:58:59;;;;;;;6.50;2.53;;;20.10;99.90;;;;;;5037541;28;20040;-73
2023/07/12 10:01:29;;;;;;;5.18;1.83;;;20.40;99.90;;;;;;5034252;28;20045;-73
2023/07/12 10:03:59;;;;;;;7.70;1.92;;;20.30;99.90;;;;;;5038052;28;20055;-73
2023/07/12 10:06:38;;;;;;;7.00;2.55;;;20.60;99.90;;;;;;5038675;28;20158;-73
2023/07/12 10:09:31;;;;;;;6.10;2.50;;;20.50;99.90;;;;;;5032999;28;20051;-72
2023/07/12 10:12:03;;;;;;;10.52;3.13;;;22.10;99.90;;;;;;5031497;28;20046;-73
2023/07/12 10:14:34;;;;;;;7.63;2.97;;;20.80;99.90;;;;;;5050211;28;20594;-73
2023/07/12 10:17:01;;;;;;;6.75;2.60;;;20.70;99.90;;;;;;5037740;28;20045;-73
2023/07/12 10:19:32;;;;;;;6.85;2.80;;;20.50;99.90;;;;;;5043055;28;20068;-72
2023/07/12 10:22:01;;;;;;;6.13;2.80;;;20.40;99.90;;;;;;5040982;28;20037;-73
2023/07/12 10:24:36;;;;;;;5.97;2.78;;;20.40;99.90;;;;;;5039582;28;20051;-73
2023/07/12 10:27:10;;;;;;;8.13;3.13;;;20.60;99.90;;;;;;5041437;28;20056;-73
2023/07/12 10:29:45;;;;;;;12.85;2.53;;;20.50;99.90;;;;;;5036692;28;20049;-73
2023/07/12 10:32:21;;;;;;;10.00;1.95;;;20.80;99.90;;;;;;5040274;28;20041;-73
2023/07/12 10:35:15;;;;;;;6.50;1.77;;;21.10;99.90;;;;;;5030403;28;20046;-69
2023/07/12 10:37:50;;;;;;;4.77;1.60;;;21.40;99.90;;;;;;5019196;28;20053;-73
2023/07/12 10:40:23;;;;;;;6.80;2.15;;;21.30;99.90;;;;;;5031529;28;20045;-74
2023/07/12 10:42:59;;;;;;;4.68;2.60;;;23.20;99.90;;;;;;5031856;28;20080;-73
2023/07/12 10:45:29;;;;;;;6.55;2.40;;;21.30;99.90;;;;;;5040190;28;20052;-72
2023/07/12 10:47:57;;;;;;;7.40;1.67;;;21.40;99.90;;;;;;5030977;28;20057;-74
2023/07/12 10:50:44;;;;;;;6.07;2.40;;;21.50;99.90;;;;;;5035404;28;20087;-73
2023/07/12 10:53:20;;;;;;;6.38;1.40;;;21.70;99.90;;;;;;5025116;28;20073;-73
2023/07/12 10:56:08;;;;;;;4.97;1.20;;;21.60;99.90;;;;;;5037835;28;20495;-74
2023/07/12 10:58:54;;;;;;;4.60;1.40;;;21.40;99.90;;;;;;5027055;28;20069;-73
2023/07/12 11:01:43;;;;;;;8.10;1.45;;;23.60;99.90;;;;;;5037983;28;20040;-75
2023/07/12 11:04:14;;;;;;;8.35;1.75;;;21.90;99.90;;;;;;5042486;28;20044;-74
2023/07/12 11:07:01;;;;;;;4.55;2.00;;;23.30;99.90;;;;;;5036278;28;20052;-73
2023/07/12 11:09:49;;;;;;;9.35;2.30;;;21.80;99.90;;;;;;5040290;28;20049;-74
2023/07/12 11:12:36;;;;;;;7.65;1.75;;;23.20;99.90;;;;;;5034904;28;20044;-75
2023/07/12 11:15:17;;;;;;;5.15;2.05;;;22.90;99.90;;;;;;5037537;28;20140;-72
2023/07/12 11:18:09;;;;;;;6.72;2.03;;;22.50;99.90;;;;;;5040047;28;20086;-72
2023/07/12 11:21:05;;;;;;;4.28;1.85;;;22.10;99.90;;;;;;5041592;28;20041;-73
2023/07/12 11:23:51;;;;;;;5.57;1.98;;;22.00;99.90;;;;;;5037089;28;20075;-75
2023/07/12 11:26:29;;;;;;;5.53;1.48;;;22.30;99.90;;;;;;5040218;28;20052;-74
2023/07/12 11:29:32;;;;;;;8.25;1.77;;;22.50;99.90;;;;;;5035631;28;20194;-73
2023/07/12 11:32:37;;;;;;;7.57;1.38;;;22.10;99.90;;;;;;5032164;28;20158;-73
2023/07/12 11:35:09;;;;;;;4.90;1.00;;;22.00;99.90;;;;;;5023669;28;20107;-73
2023/07/12 11:37:40;;;;;;;4.65;0.80;;;19.40;99.90;;;;;;5035852;28;20052;-73
2023/07/12 11:40:24;;;;;;;4.10;0.77;;;22.30;99.90;;;;;;5042248;28;20059;-73
2023/07/12 11:42:50;;;;;;;2.45;0.93;;;22.00;99.90;;;;;;5032556;28;20108;-73
2023/07/12 11:45:20;;;;;;;2.58;1.00;;;22.20;99.90;;;;;;5038389;28;20056;-73
2023/07/12 11:47:48;;;;;;;4.35;0.57;;;22.00;99.90;;;;;;5038916;28;20055;-73
2023/07/12 11:50:27;;;;;;;6.45;1.58;;;22.40;99.90;;;;;;5043139;28;20484;-73
2023/07/12 11:52:54;;;;;;;2.65;0.90;;;21.90;99.90;;;;;;5041535;28;20057;-73
2023/07/12 11:55:22;;;;;;;4.80;1.38;;;22.10;99.90;;;;;;5045403;28;20032;-73
2023/07/12 11:57:49;;;;;;;5.65;1.10;;;22.10;99.90;;;;;;5041921;28;20090;-73
2023/07/12 12:00:20;;;;;;;3.83;1.02;;;22.10;99.90;;;;;;5042011;28;20041;-73
2023/07/12 12:02:50;;;;;;;3.92;0.80;;;21.60;99.90;;;;;;5041872;28;20045;-73
2023/07/12 12:05:20;;;;;;;4.72;0.75;;;23.10;99.90;;;;;;5029154;28;20048;-73
2023/07/12 12:07:47;;;;;;;6.03;1.00;;;21.70;99.90;;;;;;5034306;28;20052;-72
2023/07/12 12:10:22;;;;;;;6.32;1.17;;;21.90;99.90;;;;;;5041590;28;20502;-73
2023/07/12 12:12:49;;;;;;;3.08;0.63;;;21.80;99.90;;;;;;5036013;28;20536;-73
2023/07/12 12:15:26;;;;;;;2.40;0.70;;;21.90;99.90;;;;;;5037360;28;20036;-74
2023/07/12 12:17:54;;;;;;;3.05;0.50;;;21.90;99.90;;;;;;5035940;28;20087;-72
2023/07/12 12:20:26;;;;;;;5.88;0.80;;;22.60;99.90;;;;;;5036685;28;20391;-72
2023/07/12 12:23:12;;;;;;;4.38;0.60;;;22.00;99.90;;;;;;5023942;28;20055;-73
2023/07/12 12:25:46;;;;;;;5.50;1.35;;;21.90;99.90;;;;;;5021503;28;20056;-73
2023/07/12 12:28:28;;;;;;;5.43;1.10;;;21.80;99.90;;;;;;5029961;28;20515;-73
2023/07/12 12:31:18;;;;;;;3.88;0.98;;;21.40;99.90;;;;;;5039534;28;20080;-72
2023/07/12 12:33:47;;;;;;;3.28;0.93;;;21.30;99.90;;;;;;5033612;28;20057;-73
2023/07/12 12:36:20;;;;;;;5.00;0.95;;;21.60;99.90;;;;;;5044878;28;20032;-73
2023/07/12 12:38:59;;;;;;;4.45;0.80;;;21.80;99.90;;;;;;5039666;28;20041;-73
2023/07/12 12:41:32;;;;;;;4.13;0.65;;;21.60;99.90;;;;;;5032215;28;20048;-72
2023/07/12 12:44:16;;;;;;;1.70;0.70;;;21.90;99.90;;;;;;5043424;28;20048;-73
2023/07/12 12:46:43;;;;;;;1.42;0.60;;;22.10;99.90;;;;;;5041683;28;20047;-73
2023/07/12 12:49:31;;;;;;;2.45;0.70;;;21.80;99.90;;;;;;5042697;28;20048;-73
2023/07/12 12:52:15;;;;;;;3.10;0.73;;;22.30;99.90;;;;;;5041878;28;20280;-73
2023/07/12 12:54:41;;;;;;;4.70;0.65;;;21.80;99.90;;;;;;5018729;28;20140;-72
2023/07/12 12:57:07;;;;;;;3.55;0.70;;;21.90;99.90;;;;;;5038829;28;20047;-73
2023/07/12 12:59:33;;;;;;;2.28;0.60;;;22.00;99.90;;;;;;5037231;28;20049;-72
2023/07/12 13:01:59;;;;;;;4.93;0.63;;;23.80;99.90;;;;;;5036553;28;20041;-73
2023/07/12 13:04:25;;;;;;;3.30;0.85;;;22.00;99.90;;;;;;5043907;28;20072;-73
2023/07/12 13:06:50;;;;;;;3.72;0.63;;;22.20;99.90;;;;;;5037398;28;20037;-73
2023/07/12 13:09:20;;;;;;;2.55;0.50;;;22.10;99.90;;;;;;5039870;28;20406;-73
2023/07/12 13:11:50;;;;;;;3.53;0.68;;;22.20;99.90;;;;;;5035526;28;20038;-73
2023/07/12 13:14:16;;;;;;;3.08;0.70;;;22.10;99.90;;;;;;5040671;28;20491;-73